Wake Island Airfield, Wake Island

6:14 AM WAKT on May 25, 2015 (GMT +1200)
Wake Island Army Air Field | | Change Station
CLOSE
Current Station
Airport
Location: Wake Island, Wake Island Army,
Elevation: 13 ft
Nearby Weather Stations

Elev 13 ft 19.28 °N, 166.64 °E | Updated 16 minutes ago

Scattered Clouds
Scattered Clouds
78 °F
Feels Like 78 °F
N
13
Wind Variable Wind from East
Gusts 18 mph

Today
High -- | Low -- °F
--% Chance of Precip.
Yesterday
High -- | Low -- °F
Precip. -- in
6:15 AM 7:24 PM
Waxing Crescent, 41% visible
Pressure 30.03 in
Visibility 6.2 miles
Clouds Scattered Clouds 1700 ft
Scattered Clouds 2900 ft
Scattered Clouds 5000 ft
Dew Point 73 °F
Humidity 85%
Rainfall 0.00 in
Snow Depth Not available.
UV 0 out of 12
Pollen Not available.
Air Quality Not available.
Flu Activity Not available.
METAR PWAK 241758Z AUTO 10011G16KT 9999 SCT017 SCT029 SCT050 26/23 A3001 RMK AO2 RAB48E57 SLP169 P0000 60000 T02570230 10263 20257 53007 $

More Conditions Fewer Conditions

Pressure 30.03 in
Visibility 6.2 miles
Clouds Scattered Clouds 1700 ft
Scattered Clouds 2900 ft
Scattered Clouds 5000 ft
Dew Point 73 °F
Humidity 85%
Rainfall 0.00 in
Snow Depth Not available.
UV 0 out of 12
Pollen Not available.
Air Quality Not available.
Flu Activity Not available.
METAR PWAK 241758Z AUTO 10011G16KT 9999 SCT017 SCT029 SCT050 26/23 A3001 RMK AO2 RAB48E57 SLP169 P0000 60000 T02570230 10263 20257 53007 $

More Conditions Fewer Conditions

10-Day Weather Forecast

Almanac

Astronomy

May. 25, 2015 Rise Set
Actual Time
Civil Twilight
Nautical Twilight
Astronomical Twilight
Moon
Length of Visible Light
Length of Day
Tomorrow will be .
, % of the Moon is Illuminated

Today's Extremes

Country Highs Country Lows

Community

WunderPhotos

Upload Photos

1,823,817 photos uploaded!

WunderBlogs® & News

Nearby

Air Quality

  Air Quality AQ Index Pollutant
Not available.

Snow Depth

Station Depth Elevation

Earthquake Activity

City Distance Mag. Time & Date
Minimum magnitude displayed is 2.5.

Coastal Water Temperatures

Place Temperature

Stations

Nearby Weather Stations

Station Location Temp. Windchill Dew Point Humidity Wind Precip. Elev Updated Type